createdAt,value
2019-02-14T00:00:13.454Z,-1.54
2019-02-14T00:02:42.051Z,-1.64
2019-02-14T00:05:16.146Z,-1.81
2019-02-14T00:07:41.149Z,-1.74
2019-02-14T00:10:10.425Z,-1.70
2019-02-14T00:12:39.185Z,-1.74
2019-02-14T00:15:11.208Z,-1.83
2019-02-14T00:17:39.635Z,-1.77
2019-02-14T00:20:09.908Z,-1.81
2019-02-14T00:22:38.375Z,-1.79
2019-02-14T00:25:10.386Z,-1.85
2019-02-14T00:27:39.082Z,-2.01
2019-02-14T00:30:10.084Z,-2.01
2019-02-14T00:32:38.513Z,-2.03
2019-02-14T00:35:07.380Z,-1.97
2019-02-14T00:37:35.952Z,-1.97
2019-02-14T00:40:06.606Z,-1.93
2019-02-14T00:42:35.034Z,-1.99
2019-02-14T00:45:03.498Z,-2.05
2019-02-14T00:47:31.932Z,-2.07
2019-02-14T00:50:00.430Z,-2.06
2019-02-14T00:52:29.429Z,-2.18
2019-02-14T00:54:57.881Z,-2.12
2019-02-14T00:57:26.406Z,-2.03
2019-02-14T00:59:54.869Z,-2.12
2019-02-14T01:02:23.313Z,-2.02
2019-02-14T01:04:51.757Z,-1.90
2019-02-14T01:07:20.372Z,-1.98
2019-02-14T01:09:48.813Z,-1.89
2019-02-14T01:12:17.581Z,-1.88
2019-02-14T01:14:46.425Z,-1.96
2019-02-14T01:17:14.853Z,-2.02
2019-02-14T01:19:43.280Z,-1.95
2019-02-14T01:22:11.751Z,-1.95
2019-02-14T01:24:40.173Z,-2.15
2019-02-14T01:27:08.600Z,-2.30
2019-02-14T01:29:37.414Z,-2.33
2019-02-14T01:32:05.840Z,-2.36
2019-02-14T01:34:34.627Z,-2.41
2019-02-14T01:37:03.096Z,-2.31
2019-02-14T01:39:31.521Z,-2.28
2019-02-14T01:42:00.020Z,-2.12
2019-02-14T01:44:29.348Z,-1.99
2019-02-14T01:46:58.109Z,-2.03
2019-02-14T01:50:06.487Z,-1.86
2019-02-14T01:52:34.917Z,-2.25
2019-02-14T02:00:51.357Z,-2.50
2019-02-14T02:03:19.817Z,-2.27
2019-02-14T02:05:50.879Z,-2.31
2019-02-14T02:08:18.540Z,-2.30
2019-02-14T02:13:40.352Z,-2.30
2019-02-14T02:16:08.780Z,-2.35
2019-02-14T02:21:32.152Z,-2.48
2019-02-14T02:24:00.572Z,-2.53
2019-02-14T02:26:29.072Z,-2.49
2019-02-14T02:31:50.930Z,-2.42
2019-02-14T02:34:19.774Z,-2.48
2019-02-14T02:36:48.291Z,-2.36
2019-02-14T02:39:17.032Z,-2.33
2019-02-14T02:41:45.491Z,-2.29
2019-02-14T02:44:13.919Z,-2.46
2019-02-14T02:46:42.351Z,-2.44
2019-02-14T02:49:10.845Z,-2.41
2019-02-14T02:57:01.460Z,-2.51
2019-02-14T02:59:29.953Z,-2.47
2019-02-14T03:01:58.381Z,-2.36
2019-02-14T03:07:33.786Z,-2.50
2019-02-14T03:10:02.216Z,-2.52
2019-02-14T03:12:50.061Z,-2.29
2019-02-14T03:15:18.784Z,-2.17
2019-02-14T03:17:47.216Z,-2.28
2019-02-14T03:20:15.668Z,-2.26
2019-02-14T03:23:03.509Z,-2.13
2019-02-14T03:25:32.413Z,-2.26
2019-02-14T03:28:01.163Z,-2.30
2019-02-14T03:30:29.599Z,-2.47
2019-02-14T03:32:58.433Z,-2.35
2019-02-14T03:35:26.856Z,-2.54
2019-02-14T03:37:55.284Z,-2.63
2019-02-14T03:40:23.740Z,-2.57
2019-02-14T03:43:11.359Z,-2.54
2019-02-14T03:45:39.828Z,-2.76
2019-02-14T03:48:08.258Z,-2.75
2019-02-14T03:50:36.686Z,-2.78
2019-02-14T03:53:05.144Z,-2.81
2019-02-14T03:55:33.574Z,-2.85
2019-02-14T03:58:02.004Z,-2.91
2019-02-14T04:00:30.464Z,-2.99
2019-02-14T04:02:58.892Z,-2.91
2019-02-14T04:05:27.323Z,-2.87
2019-02-14T04:07:55.775Z,-3.00
2019-02-14T04:10:24.203Z,-3.12
2019-02-14T04:12:52.634Z,-3.00
2019-02-14T04:17:54.660Z,-2.92
2019-02-14T04:20:23.225Z,-3.05
2019-02-14T04:22:51.652Z,-3.08
2019-02-14T04:25:20.090Z,-3.19
2019-02-14T04:27:48.589Z,-3.19
2019-02-14T04:30:36.255Z,-3.15
2019-02-14T04:33:23.981Z,-3.10
2019-02-14T04:35:52.415Z,-3.14
2019-02-14T04:38:20.836Z,-3.15
2019-02-14T04:41:08.619Z,-3.08
2019-02-14T04:43:37.034Z,-3.30
2019-02-14T04:46:05.465Z,-3.20
2019-02-14T04:48:33.943Z,-3.16
2019-02-14T04:51:02.367Z,-3.27
2019-02-14T04:53:30.792Z,-3.13
2019-02-14T04:55:59.243Z,-3.09
2019-02-14T04:58:27.692Z,-3.17
2019-02-14T05:00:56.475Z,-2.98
2019-02-14T05:03:24.931Z,-3.08
2019-02-14T05:05:53.354Z,-3.27
2019-02-14T05:08:21.775Z,-3.23
2019-02-14T05:13:24.685Z,-3.24
2019-02-14T05:16:12.425Z,-3.17
2019-02-14T05:18:40.941Z,-3.33
2019-02-14T05:21:09.364Z,-3.34
2019-02-14T05:23:37.819Z,-3.34
2019-02-14T05:26:06.337Z,-3.05
2019-02-14T05:28:34.769Z,-3.27
2019-02-14T05:31:03.230Z,-3.29
2019-02-14T05:33:31.747Z,-3.25
2019-02-14T05:36:00.188Z,-3.27
2019-02-14T05:38:28.980Z,-3.32
2019-02-14T05:40:57.784Z,-3.39
2019-02-14T05:43:26.225Z,-3.35
2019-02-14T05:45:54.686Z,-3.33
2019-02-14T05:48:23.112Z,-3.32
2019-02-14T05:50:51.540Z,-3.35
2019-02-14T05:53:19.991Z,-3.46
2019-02-14T05:55:48.415Z,-3.37
2019-02-14T05:58:16.868Z,-3.40
2019-02-14T06:00:45.320Z,-3.42
2019-02-14T06:03:13.836Z,-3.57
2019-02-14T06:05:42.580Z,-3.57
2019-02-14T06:08:11.032Z,-3.59
2019-02-14T06:10:39.871Z,-3.54
2019-02-14T06:13:08.640Z,-3.48
2019-02-14T06:15:37.179Z,-3.48
2019-02-14T06:18:05.603Z,-3.49
2019-02-14T06:20:34.409Z,-3.48
2019-02-14T06:23:03.279Z,-3.51
2019-02-14T06:25:31.747Z,-3.37
2019-02-14T06:28:00.176Z,-3.45
2019-02-14T06:30:28.948Z,-3.49
2019-02-14T06:32:57.372Z,-3.47
2019-02-14T06:35:25.807Z,-3.35
2019-02-14T06:38:34.744Z,-3.48
2019-02-14T06:41:03.672Z,-3.48
2019-02-14T06:43:52.624Z,-3.51
2019-02-14T06:46:21.061Z,-3.60
2019-02-14T06:48:49.860Z,-3.54
2019-02-14T06:51:18.624Z,-3.53
2019-02-14T06:53:47.056Z,-3.46
2019-02-14T06:56:15.474Z,-3.60
2019-02-14T06:58:43.935Z,-3.54
2019-02-14T07:01:12.359Z,-3.55
2019-02-14T07:03:41.626Z,-3.52
2019-02-14T07:06:10.083Z,-3.55
2019-02-14T07:08:38.513Z,-3.50
2019-02-14T07:11:26.524Z,-3.40
2019-02-14T07:13:54.951Z,-3.38
2019-02-14T07:16:23.381Z,-3.34
2019-02-14T07:18:51.837Z,-3.18
2019-02-14T07:21:21.747Z,-3.14
2019-02-14T07:23:51.001Z,-3.10
2019-02-14T07:28:53.224Z,-2.99
2019-02-14T07:31:21.652Z,-2.88
2019-02-14T07:33:50.128Z,-2.83
2019-02-14T07:36:18.639Z,-2.79
2019-02-14T07:38:47.140Z,-2.74
2019-02-14T07:41:15.591Z,-2.52
2019-02-14T07:43:44.017Z,-2.41
2019-02-14T07:46:12.445Z,-2.30
2019-02-14T07:51:33.706Z,-2.10
2019-02-14T07:54:02.181Z,-1.82
2019-02-14T07:56:30.708Z,-1.86
2019-02-14T07:58:59.140Z,-1.78
2019-02-14T08:01:46.782Z,-1.74
2019-02-14T08:04:15.214Z,-1.62
2019-02-14T08:06:43.925Z,-1.48
2019-02-14T08:09:12.397Z,-1.41
2019-02-14T08:12:00.145Z,-1.36
2019-02-14T08:14:28.692Z,-1.18
2019-02-14T08:16:57.124Z,-1.16
2019-02-14T08:19:25.583Z,-1.08
2019-02-14T08:21:54.058Z,-0.98
2019-02-14T08:24:22.490Z,-0.90
2019-02-14T08:26:50.928Z,-0.78
2019-02-14T08:29:19.391Z,-0.71
2019-02-14T08:31:47.821Z,-0.63
2019-02-14T08:37:24.546Z,-0.50
2019-02-14T08:39:52.966Z,-0.40
2019-02-14T08:42:21.399Z,-0.25
2019-02-14T08:44:49.855Z,-0.17
2019-02-14T08:47:18.612Z,-0.02
2019-02-14T08:49:47.036Z,0.04
2019-02-14T08:52:15.490Z,0.12
2019-02-14T08:54:43.938Z,0.22
2019-02-14T08:57:12.361Z,0.28
2019-02-14T08:59:41.121Z,0.42
2019-02-14T09:02:09.551Z,0.62
2019-02-14T09:04:37.966Z,0.72
2019-02-14T09:07:06.417Z,0.57
2019-02-14T09:09:34.843Z,0.77
2019-02-14T09:12:03.633Z,0.92
2019-02-14T09:17:26.924Z,1.19
2019-02-14T09:19:55.351Z,1.36
2019-02-14T09:22:24.110Z,1.57
2019-02-14T09:24:52.666Z,1.64
2019-02-14T09:27:21.087Z,1.69
2019-02-14T09:29:49.530Z,1.85
2019-02-14T09:34:57.647Z,2.17
2019-02-14T09:37:26.043Z,2.49
2019-02-14T09:39:54.471Z,2.58
2019-02-14T09:42:22.915Z,2.55
2019-02-14T09:44:51.348Z,2.56
2019-02-14T09:47:19.773Z,2.45
2019-02-14T09:49:48.340Z,2.29
2019-02-14T09:52:17.149Z,2.42
2019-02-14T09:54:45.923Z,2.52
2019-02-14T10:02:29.434Z,2.63
2019-02-14T10:04:58.171Z,2.91
2019-02-14T10:07:26.938Z,2.86
2019-02-14T10:09:55.405Z,3.03
2019-02-14T10:12:43.295Z,3.25
2019-02-14T10:15:52.002Z,3.41
2019-02-14T10:18:20.424Z,3.59
2019-02-14T10:20:49.205Z,3.71
2019-02-14T10:23:18.090Z,4.02
2019-02-14T10:25:47.924Z,3.79
2019-02-14T10:28:16.343Z,3.85
2019-02-14T10:30:44.791Z,4.10
2019-02-14T10:33:13.215Z,3.84
2019-02-14T10:36:00.863Z,4.03
2019-02-14T10:38:29.283Z,4.13
2019-02-14T10:40:57.991Z,4.26
2019-02-14T10:46:00.503Z,4.66
2019-02-14T10:48:28.957Z,4.39
2019-02-14T10:50:57.379Z,4.53
2019-02-14T10:53:25.803Z,4.38
2019-02-14T10:55:54.333Z,4.68
2019-02-14T10:58:22.827Z,4.81
2019-02-14T11:00:51.256Z,4.83
2019-02-14T11:03:20.057Z,4.97
2019-02-14T11:06:08.122Z,4.93
2019-02-14T11:11:30.317Z,5.01
2019-02-14T11:16:32.412Z,5.29
2019-02-14T11:19:00.866Z,5.49
2019-02-14T11:21:29.611Z,5.62
2019-02-14T11:23:58.395Z,5.66
2019-02-14T11:26:26.849Z,5.82
2019-02-14T11:28:55.581Z,5.89
2019-02-14T11:31:23.989Z,6.07
2019-02-14T11:36:26.381Z,6.41
2019-02-14T11:38:54.816Z,6.58
2019-02-14T11:43:57.653Z,6.62
2019-02-14T11:46:26.210Z,6.91
2019-02-14T11:48:54.641Z,6.84
2019-02-14T11:54:16.573Z,6.91
2019-02-14T11:56:45.040Z,7.11
2019-02-14T11:59:13.474Z,7.32
2019-02-14T12:01:41.991Z,7.43
2019-02-14T12:04:10.444Z,7.47
2019-02-14T12:06:38.971Z,7.43
2019-02-14T12:09:07.455Z,7.60
2019-02-14T12:11:36.004Z,7.67
2019-02-14T12:14:04.788Z,7.78
2019-02-14T12:16:33.303Z,7.77
2019-02-14T12:19:01.861Z,7.69
2019-02-14T12:21:30.290Z,7.66
2019-02-14T12:23:59.008Z,7.81
2019-02-14T12:26:46.585Z,7.89
2019-02-14T12:29:34.230Z,7.80
2019-02-14T12:32:02.709Z,7.93
2019-02-14T12:34:31.176Z,7.89
2019-02-14T12:37:18.994Z,8.01
2019-02-14T12:39:47.426Z,8.03
2019-02-14T12:42:15.853Z,7.99
2019-02-14T12:47:18.321Z,8.13
2019-02-14T12:49:46.870Z,8.12
2019-02-14T12:52:15.296Z,8.31
2019-02-14T12:54:44.068Z,8.37
2019-02-14T12:57:12.545Z,8.47
2019-02-14T12:59:40.974Z,8.60
2019-02-14T13:02:28.616Z,8.75
2019-02-14T13:04:57.149Z,8.79
2019-02-14T13:07:25.580Z,8.92
2019-02-14T13:10:13.444Z,8.99
2019-02-14T13:12:41.960Z,8.86
2019-02-14T13:15:50.331Z,9.03
2019-02-14T13:18:19.044Z,9.09
2019-02-14T13:20:47.477Z,9.09
2019-02-14T13:23:16.007Z,9.31
2019-02-14T13:25:44.446Z,9.55
2019-02-14T13:28:32.225Z,9.38
2019-02-14T13:31:00.667Z,9.71
2019-02-14T13:33:29.389Z,9.62
2019-02-14T13:36:17.284Z,9.75
2019-02-14T13:38:45.810Z,9.69
2019-02-14T13:41:33.593Z,9.69
2019-02-14T13:44:02.108Z,9.88
2019-02-14T13:46:30.808Z,9.86
2019-02-14T13:48:59.274Z,10.03
2019-02-14T13:51:27.698Z,9.95
2019-02-14T13:54:15.489Z,9.88
2019-02-14T13:56:54.031Z,9.90
2019-02-14T14:01:56.774Z,9.91
2019-02-14T14:04:25.292Z,10.01
2019-02-14T14:06:53.725Z,10.13
2019-02-14T14:09:22.190Z,10.05
2019-02-14T14:11:50.621Z,10.13
2019-02-14T14:14:19.143Z,10.06
2019-02-14T14:19:21.944Z,9.99
2019-02-14T14:21:50.733Z,9.91
2019-02-14T14:24:19.254Z,9.91
2019-02-14T14:26:47.680Z,9.88
2019-02-14T14:29:16.459Z,9.93
2019-02-14T14:31:44.976Z,9.85
2019-02-14T14:34:13.409Z,9.76
2019-02-14T14:39:16.432Z,9.67
2019-02-14T14:41:44.995Z,9.66
2019-02-14T14:47:02.871Z,9.62
2019-02-14T14:49:31.303Z,9.50
2019-02-14T14:51:59.734Z,9.39
2019-02-14T14:54:28.194Z,9.49
2019-02-14T14:56:56.620Z,9.16
2019-02-14T14:59:25.377Z,8.99
2019-02-14T15:01:54.164Z,8.94
2019-02-14T15:04:22.952Z,8.84
2019-02-14T15:06:51.381Z,8.76
2019-02-14T15:09:19.840Z,8.83
2019-02-14T15:11:48.270Z,8.71
2019-02-14T15:14:16.792Z,8.55
2019-02-14T15:16:45.325Z,8.39
2019-02-14T15:19:13.757Z,8.35
2019-02-14T15:21:42.545Z,8.41
2019-02-14T15:24:11.313Z,8.45
2019-02-14T15:26:40.106Z,8.48
2019-02-14T15:29:08.912Z,8.48
2019-02-14T15:31:37.476Z,8.49
2019-02-14T15:34:06.264Z,8.50
2019-02-14T15:36:34.692Z,8.49
2019-02-14T15:41:39.081Z,8.53
2019-02-14T15:44:07.516Z,8.59
2019-02-14T15:46:35.964Z,8.56
2019-02-14T15:49:25.406Z,8.56
2019-02-14T15:51:54.200Z,8.56
2019-02-14T15:54:22.657Z,8.52
2019-02-14T15:56:53.148Z,8.41
2019-02-14T15:59:42.991Z,8.36
2019-02-14T16:02:10.916Z,8.32
2019-02-14T16:04:39.655Z,8.27
2019-02-14T16:07:08.071Z,8.30
2019-02-14T16:09:38.864Z,8.22
2019-02-14T16:12:06.782Z,8.03
2019-02-14T16:14:54.613Z,7.86
2019-02-14T16:17:23.352Z,7.93
2019-02-14T16:19:51.782Z,7.87
2019-02-14T16:24:54.342Z,7.51
2019-02-14T16:27:24.535Z,7.30
2019-02-14T16:29:53.143Z,7.25
2019-02-14T16:32:21.572Z,7.01
2019-02-14T16:34:49.998Z,6.97
2019-02-14T16:37:18.541Z,6.91
2019-02-14T16:39:51.842Z,6.70
2019-02-14T16:42:17.123Z,6.33
2019-02-14T16:47:20.067Z,5.99
2019-02-14T16:49:48.508Z,6.02
2019-02-14T16:52:17.049Z,5.70
2019-02-14T16:54:45.528Z,5.58
2019-02-14T16:57:13.995Z,5.55
2019-02-14T16:59:42.830Z,5.49
2019-02-14T17:02:11.355Z,5.31
2019-02-14T17:04:59.056Z,4.96
2019-02-14T17:10:15.019Z,4.53
2019-02-14T17:12:43.452Z,4.50
2019-02-14T17:15:31.493Z,4.56
2019-02-14T17:17:59.922Z,4.69
2019-02-14T17:20:28.703Z,4.60
2019-02-14T17:22:57.170Z,4.43
2019-02-14T17:25:45.149Z,4.32
2019-02-14T17:28:13.911Z,4.29
2019-02-14T17:30:42.448Z,4.35
2019-02-14T17:33:10.865Z,4.36
2019-02-14T17:35:39.321Z,4.28
2019-02-14T17:38:07.757Z,4.05
2019-02-14T17:40:36.176Z,4.03
2019-02-14T17:45:57.836Z,3.86
2019-02-14T17:48:26.668Z,3.74
2019-02-14T17:50:56.773Z,3.60
2019-02-14T17:53:25.557Z,3.71
2019-02-14T17:55:53.993Z,3.50
2019-02-14T17:58:22.453Z,3.37
2019-02-14T18:00:50.887Z,3.28
2019-02-14T18:03:19.718Z,3.03
2019-02-14T18:05:48.289Z,3.05
2019-02-14T18:08:35.843Z,3.03
2019-02-14T18:13:39.011Z,2.73
2019-02-14T18:16:07.795Z,2.76
2019-02-14T18:18:36.261Z,2.60
2019-02-14T18:21:04.778Z,2.47
2019-02-14T18:23:33.237Z,2.64
2019-02-14T18:26:02.526Z,2.45
2019-02-14T18:28:30.955Z,2.24
2019-02-14T18:31:18.738Z,2.45
2019-02-14T18:34:06.550Z,2.23
2019-02-14T18:36:54.354Z,2.11
2019-02-14T18:39:42.141Z,2.00
2019-02-14T18:42:30.428Z,1.90
2019-02-14T18:45:19.543Z,1.84
2019-02-14T18:48:07.225Z,1.99
2019-02-14T18:50:35.719Z,2.02
2019-02-14T18:53:23.552Z,1.88
2019-02-14T18:56:11.338Z,1.78
2019-02-14T19:04:46.771Z,1.55
2019-02-14T19:07:15.223Z,1.48
2019-02-14T19:09:44.713Z,1.47
2019-02-14T19:12:32.624Z,1.32
2019-02-14T19:15:20.281Z,1.10
2019-02-14T19:17:49.107Z,1.10
2019-02-14T19:20:36.907Z,1.24
2019-02-14T19:25:59.092Z,0.92
2019-02-14T19:28:46.993Z,1.06
2019-02-14T19:31:15.533Z,0.98
2019-02-14T19:34:03.453Z,0.81
2019-02-14T19:36:31.970Z,0.93
2019-02-14T19:39:00.406Z,0.81
2019-02-14T19:41:28.963Z,0.83
2019-02-14T19:44:16.713Z,0.70
2019-02-14T19:46:45.251Z,0.76
2019-02-14T19:49:33.026Z,0.67
2019-02-14T19:52:20.791Z,0.64
2019-02-14T19:58:36.889Z,0.52
2019-02-14T20:01:06.329Z,0.56
2019-02-14T20:03:35.271Z,0.53
2019-02-14T20:06:03.930Z,0.48
2019-02-14T20:08:32.476Z,0.45
2019-02-14T20:11:01.438Z,0.43
2019-02-14T20:13:30.707Z,0.48
2019-02-14T20:15:59.267Z,0.45
2019-02-14T20:18:28.233Z,0.32
2019-02-14T20:20:56.798Z,0.22
2019-02-14T20:23:25.574Z,0.32
2019-02-14T20:25:54.386Z,0.33
2019-02-14T20:28:23.356Z,0.40
2019-02-14T20:30:52.153Z,0.27
2019-02-14T20:33:21.562Z,0.08
2019-02-14T20:35:50.302Z,0.16
2019-02-14T20:38:20.692Z,0.13
2019-02-14T20:40:49.633Z,0.11
2019-02-14T20:43:18.283Z,0.03
2019-02-14T20:45:47.132Z,-0.04
2019-02-14T20:48:15.779Z,-0.07
2019-02-14T20:50:44.501Z,-0.05
2019-02-14T20:53:13.666Z,-0.17
2019-02-14T20:55:42.282Z,-0.22
2019-02-14T20:58:11.242Z,-0.15
2019-02-14T21:00:41.735Z,-0.18
2019-02-14T21:03:10.632Z,-0.12
2019-02-14T21:05:40.367Z,-0.27
2019-02-14T21:08:09.358Z,-0.21
2019-02-14T21:10:38.010Z,-0.31
2019-02-14T21:13:06.724Z,-0.30
2019-02-14T21:15:35.682Z,-0.49
2019-02-14T21:18:06.266Z,-0.30
2019-02-14T21:20:35.001Z,-0.31
2019-02-14T21:23:03.540Z,-0.28
2019-02-14T21:25:32.055Z,-0.23
2019-02-14T21:28:00.579Z,-0.31
2019-02-14T21:30:29.069Z,-0.39
2019-02-14T21:32:57.777Z,-0.37
2019-02-14T21:35:26.463Z,-0.28
2019-02-14T21:37:55.002Z,-0.32
2019-02-14T21:40:23.744Z,-0.48
2019-02-14T21:42:52.378Z,-0.44
2019-02-14T21:45:21.166Z,-0.56
2019-02-14T21:47:49.887Z,-0.47
2019-02-14T21:50:19.206Z,-0.62
2019-02-14T21:52:47.643Z,-0.67
2019-02-14T21:55:17.386Z,-0.77
2019-02-14T21:57:46.659Z,-0.76
2019-02-14T22:00:26.494Z,-0.65
2019-02-14T22:02:54.994Z,-0.64
2019-02-14T22:05:25.815Z,-0.66
2019-02-14T22:07:54.000Z,-0.64
2019-02-14T22:10:23.444Z,-0.71
2019-02-14T22:12:51.949Z,-0.74
2019-02-14T22:15:25.749Z,-0.89
2019-02-14T22:17:54.615Z,-0.83
2019-02-14T22:20:23.395Z,-0.68
2019-02-14T22:22:52.148Z,-0.58
2019-02-14T22:25:21.309Z,-0.68
2019-02-14T22:27:50.032Z,-1.01
2019-02-14T22:30:18.662Z,-0.79
2019-02-14T22:32:47.893Z,-0.79
2019-02-14T22:35:16.604Z,-1.03
2019-02-14T22:37:45.041Z,-1.06
2019-02-14T22:40:14.622Z,-1.04
2019-02-14T22:42:47.142Z,-1.02
2019-02-14T22:45:15.072Z,-0.89
2019-02-14T22:47:45.054Z,-1.07
2019-02-14T22:50:14.413Z,-1.05
2019-02-14T22:52:42.926Z,-0.98
2019-02-14T22:55:13.312Z,-1.06
2019-02-14T22:57:41.924Z,-1.15
2019-02-14T23:00:13.668Z,-1.06
2019-02-14T23:02:42.403Z,-1.10
2019-02-14T23:05:12.198Z,-1.30
2019-02-14T23:07:41.136Z,-1.17
2019-02-14T23:10:10.128Z,-1.20
2019-02-14T23:12:38.977Z,-1.16
2019-02-14T23:15:08.538Z,-1.24
2019-02-14T23:17:38.966Z,-1.22
2019-02-14T23:20:07.697Z,-1.26
2019-02-14T23:22:36.536Z,-1.35
2019-02-14T23:25:06.037Z,-1.33
2019-02-14T23:27:34.738Z,-1.31
2019-02-14T23:30:03.616Z,-1.50
2019-02-14T23:32:32.333Z,-1.40
2019-02-14T23:35:01.697Z,-1.42
2019-02-14T23:37:30.989Z,-1.47
2019-02-14T23:40:00.273Z,-1.57
2019-02-14T23:42:28.631Z,-1.44
2019-02-14T23:44:57.331Z,-1.44
2019-02-14T23:47:26.415Z,-1.47
2019-02-14T23:49:55.630Z,-1.45
2019-02-14T23:52:24.347Z,-1.38
2019-02-14T23:54:53.117Z,-1.47
2019-02-14T23:57:21.841Z,-1.63
2019-02-14T23:59:50.517Z,-1.62
